Time;durP1;ratioP1;P1;durP2;ratioP2;P2;SDS_P1;SDS_P2;PMS_P1;PMS_P2;Temp;Humidity;BMP_temperature;BMP_pressure;BME280_temperature;BME280_humidity;BME280_pressure;Samples;Min_cycle;Max_cycle;Signal;HPM_P1;HPM_P2
2024/01/08 00:01:14;;;;;;;3.83;2.38;;;;;;;11.47;87.52;99215.81;5097475;28;20175;-79
2024/01/08 00:03:40;;;;;;;3.42;2.65;;;;;;;11.18;87.63;99216.25;5107342;28;20031;-76
2024/01/08 00:06:06;;;;;;;1.83;1.73;;;;;;;10.99;87.10;99223.72;5109611;28;20077;-75
2024/01/08 00:08:31;;;;;;;2.90;2.70;;;;;;;10.64;87.24;99225.56;5109708;28;20031;-76
2024/01/08 00:10:57;;;;;;;4.55;3.33;;;;;;;10.41;88.43;99231.63;5109650;28;20043;-75
2024/01/08 00:13:23;;;;;;;3.30;3.00;;;;;;;10.05;89.41;99220.09;5110163;28;20055;-76
2024/01/08 00:15:49;;;;;;;10.55;3.10;;;;;;;10.14;90.20;99240.69;5110121;28;20038;-76
2024/01/08 00:18:14;;;;;;;4.05;3.10;;;;;;;9.92;91.54;99241.13;5089854;28;20035;-75
2024/01/08 00:20:41;;;;;;;3.53;3.05;;;;;;;9.81;91.53;99240.34;5109338;28;20034;-75
2024/01/08 00:23:06;;;;;;;5.88;4.25;;;;;;;9.70;92.30;99248.66;5108883;28;20020;-77
2024/01/08 00:25:32;;;;;;;7.45;3.90;;;;;;;9.53;92.88;99244.13;5094059;28;20126;-76
2024/01/08 00:27:58;;;;;;;15.32;4.50;;;;;;;9.55;93.94;99250.16;5087068;28;20024;-78
2024/01/08 00:30:23;;;;;;;6.75;4.22;;;;;;;9.63;94.74;99268.22;5077793;28;20044;-77
2024/01/08 00:32:49;;;;;;;4.22;3.83;;;;;;;9.59;94.40;99251.56;5073608;28;20020;-77
2024/01/08 00:35:14;;;;;;;5.47;4.97;;;;;;;9.54;94.13;99264.56;5088183;28;20039;-75
2024/01/08 00:37:42;;;;;;;7.97;5.00;;;;;;;9.27;93.90;99233.25;5088661;28;20060;-76
2024/01/08 00:40:09;;;;;;;5.50;5.00;;;;;;;9.45;93.08;99281.59;5088838;28;20056;-77
2024/01/08 00:42:36;;;;;;;6.35;4.97;;;;;;;9.08;92.55;99256.69;5088615;28;20031;-78
2024/01/08 00:45:02;;;;;;;6.88;4.95;;;;;;;9.09;92.75;99277.97;5088773;28;20036;-76
2024/01/08 00:47:28;;;;;;;7.07;5.22;;;;;;;8.91;92.90;99281.56;5094751;28;20039;-75
2024/01/08 00:49:53;;;;;;;6.40;5.78;;;;;;;8.87;93.65;99277.53;5091612;28;20040;-75
2024/01/08 00:52:19;;;;;;;7.90;5.20;;;;;;;8.82;94.37;99283.31;5088800;28;20021;-76
2024/01/08 00:54:44;;;;;;;6.10;5.50;;;;;;;8.80;94.16;99300.53;5088003;28;20085;-76
2024/01/08 00:57:10;;;;;;;6.03;5.43;;;;;;;8.73;93.75;99294.91;5088076;28;20044;-76
2024/01/08 00:59:35;;;;;;;6.20;5.53;;;;;;;8.59;93.38;99293.53;5088229;28;20024;-75
2024/01/08 01:02:01;;;;;;;5.95;4.80;;;;;;;8.39;92.51;99297.25;5088383;28;20028;-75
2024/01/08 01:04:26;;;;;;;5.65;5.10;;;;;;;8.30;92.26;99302.59;5088169;28;20081;-76
2024/01/08 01:06:52;;;;;;;5.72;5.18;;;;;;;8.22;92.86;99311.34;5087990;28;20118;-77
2024/01/08 01:09:17;;;;;;;4.95;4.55;;;;;;;7.95;92.34;99271.88;5088422;28;20111;-76
2024/01/08 01:11:43;;;;;;;5.20;4.70;;;;;;;7.99;92.43;99305.41;5087961;28;20028;-76
2024/01/08 01:14:09;;;;;;;5.28;4.78;;;;;;;7.99;93.03;99320.63;5088942;28;20028;-78
2024/01/08 01:16:34;;;;;;;6.03;4.80;;;;;;;7.79;92.78;99297.53;5088105;28;20051;-77
2024/01/08 01:19:00;;;;;;;5.18;4.65;;;;;;;7.82;92.86;99326.69;5086041;28;20051;-75
2024/01/08 01:21:27;;;;;;;5.38;4.78;;;;;;;7.76;92.87;99324.56;5088407;28;20016;-75
2024/01/08 01:23:53;;;;;;;4.85;4.35;;;;;;;7.69;92.88;99305.53;5088440;28;20035;-77
2024/01/08 01:26:19;;;;;;;6.57;4.72;;;;;;;7.73;93.74;99311.47;5088543;28;20048;-76
2024/01/08 01:28:44;;;;;;;7.40;3.83;;;;;;;7.79;93.05;99318.94;5088334;28;20454;-77
2024/01/08 01:31:10;;;;;;;5.22;4.40;;;;;;;7.70;93.50;99319.75;5086182;28;20036;-78
2024/01/08 01:33:36;;;;;;;5.65;4.82;;;;;;;7.68;93.73;99323.41;5088181;28;20389;-80
2024/01/08 01:36:01;;;;;;;11.10;4.65;;;;;;;7.69;93.44;99318.91;5090870;28;20063;-78
2024/01/08 01:38:27;;;;;;;6.28;4.63;;;;;;;7.66;92.59;99313.84;5093209;28;20056;-76
2024/01/08 01:40:53;;;;;;;5.68;4.20;;;;;;;7.58;91.01;99322.53;5090675;28;20028;-76
2024/01/08 01:43:28;;;;;;;4.25;3.85;;;;;;;7.43;91.19;99302.50;5089062;28;20134;-76
2024/01/08 01:45:55;;;;;;;4.82;4.03;;;;;;;7.47;90.90;99320.00;5088975;28;20032;-77
2024/01/08 01:48:22;;;;;;;5.90;4.40;;;;;;;7.37;90.73;99303.06;5088406;28;20044;-74
2024/01/08 01:50:48;;;;;;;4.63;4.15;;;;;;;7.35;91.52;99321.09;5089202;28;20036;-77
2024/01/08 01:53:14;;;;;;;5.72;3.70;;;;;;;7.36;91.07;99322.78;5088511;28;20032;-79
2024/01/08 01:55:42;;;;;;;4.38;3.97;;;;;;;7.39;91.46;99327.88;5088874;28;20035;-77
2024/01/08 01:58:08;;;;;;;5.82;4.35;;;;;;;7.52;91.90;99333.78;5088598;28;20024;-76
2024/01/08 02:00:34;;;;;;;10.50;4.68;;;;;;;7.60;91.56;99338.47;5089252;28;20083;-77
2024/01/08 02:03:01;;;;;;;5.43;4.40;;;;;;;7.58;91.37;99333.25;5085467;28;20120;-74
2024/01/08 02:05:27;;;;;;;5.30;4.78;;;;;;;7.64;91.95;99338.03;5087273;28;20412;-75
2024/01/08 02:07:53;;;;;;;4.13;3.72;;;;;;;7.54;90.63;99334.53;5087628;28;20020;-76
2024/01/08 02:10:20;;;;;;;4.93;3.80;;;;;;;7.54;90.36;99342.53;5087177;28;20036;-77
2024/01/08 02:12:45;;;;;;;7.35;3.97;;;;;;;7.50;90.13;99335.75;5087682;28;20028;-76
2024/01/08 02:15:11;;;;;;;7.30;3.97;;;;;;;7.46;89.72;99338.88;5087697;28;20042;-77
2024/01/08 02:17:38;;;;;;;7.07;3.40;;;;;;;7.51;89.76;99364.22;5087723;28;20130;-76
2024/01/08 02:20:04;;;;;;;5.78;3.25;;;;;;;7.54;90.08;99353.25;5087782;28;20064;-76
2024/01/08 02:22:30;;;;;;;5.53;3.40;;;;;;;7.48;89.51;99343.09;5087552;28;20024;-76
2024/01/08 02:24:55;;;;;;;4.35;3.50;;;;;;;7.46;89.22;99358.41;5088096;28;20115;-75
2024/01/08 02:27:21;;;;;;;3.83;3.45;;;;;;;7.57;88.44;99379.72;5107302;28;20032;-77
2024/01/08 02:29:47;;;;;;;10.25;3.83;;;;;;;7.61;88.65;99374.94;5101762;28;20110;-76
2024/01/08 02:32:13;;;;;;;7.20;3.78;;;;;;;7.72;89.16;99384.69;5090813;28;20036;-76
2024/01/08 02:34:39;;;;;;;7.75;4.32;;;;;;;7.60;88.91;99374.09;5090800;28;20027;-75
2024/01/08 02:37:05;;;;;;;3.58;3.28;;;;;;;7.63;88.82;99383.69;5090597;28;20020;-77
2024/01/08 02:39:30;;;;;;;5.75;4.47;;;;;;;7.64;88.13;99374.69;5090980;28;20026;-75
2024/01/08 02:41:56;;;;;;;4.93;3.97;;;;;;;7.65;87.86;99377.19;5091413;28;20075;-76
2024/01/08 02:44:21;;;;;;;5.50;3.88;;;;;;;7.70;87.06;99370.59;5091538;28;20406;-76
2024/01/08 02:46:47;;;;;;;4.43;4.03;;;;;;;7.71;86.44;99374.94;5090756;28;20032;-75
2024/01/08 02:49:12;;;;;;;5.97;4.78;;;;;;;7.62;86.53;99388.19;5090916;28;20181;-76
2024/01/08 02:51:38;;;;;;;5.45;4.20;;;;;;;7.61;86.36;99394.50;5091223;28;20458;-76
2024/01/08 02:54:03;;;;;;;6.70;3.83;;;;;;;7.62;87.32;99390.84;5091036;28;20044;-77
2024/01/08 02:56:29;;;;;;;3.75;3.42;;;;;;;7.59;85.88;99391.13;5090887;28;20153;-76
2024/01/08 02:58:54;;;;;;;4.05;3.60;;;;;;;7.48;85.58;99380.53;5090383;28;20111;-74
2024/01/08 03:01:20;;;;;;;4.30;3.92;;;;;;;7.42;85.61;99381.09;5090567;28;20040;-76
2024/01/08 03:03:45;;;;;;;3.85;3.47;;;;;;;7.19;85.13;99368.88;5090592;28;20432;-75
2024/01/08 03:06:11;;;;;;;4.25;3.85;;;;;;;7.04;85.50;99375.56;5090590;28;20024;-76
2024/01/08 03:08:36;;;;;;;8.60;3.95;;;;;;;7.06;86.68;99395.00;5091094;28;20024;-74
2024/01/08 03:11:02;;;;;;;5.35;4.38;;;;;;;6.96;86.49;99378.06;5089726;28;20558;-74
2024/01/08 03:13:27;;;;;;;4.40;4.10;;;;;;;6.98;86.85;99378.75;5090840;28;20031;-77
2024/01/08 03:15:53;;;;;;;4.70;4.30;;;;;;;6.98;87.17;99408.16;5094041;28;20081;-75
2024/01/08 03:18:18;;;;;;;6.22;4.82;;;;;;;6.77;86.27;99399.31;5099319;28;20453;-76
2024/01/08 03:20:44;;;;;;;5.13;4.68;;;;;;;6.82;86.04;99415.81;5093802;28;20028;-75
2024/01/08 03:23:09;;;;;;;4.05;3.75;;;;;;;6.77;86.01;99405.50;5089899;28;20507;-75
2024/01/08 03:25:36;;;;;;;4.82;4.30;;;;;;;6.70;86.33;99408.81;5089845;28;20048;-75
2024/01/08 03:28:02;;;;;;;8.52;4.38;;;;;;;6.74;86.09;99418.28;5090977;28;20058;-75
2024/01/08 03:30:28;;;;;;;5.63;4.43;;;;;;;6.70;85.81;99427.50;5090758;28;20063;-75
2024/01/08 03:32:53;;;;;;;5.63;4.30;;;;;;;6.68;86.57;99432.16;5071316;28;20094;-75
2024/01/08 03:35:19;;;;;;;3.92;3.63;;;;;;;6.66;86.65;99423.44;5090348;28;20116;-74
2024/01/08 03:37:45;;;;;;;10.30;4.40;;;;;;;6.50;86.20;99392.66;5091348;28;20104;-75
2024/01/08 03:40:11;;;;;;;5.10;4.70;;;;;;;6.71;86.18;99437.22;5090109;28;20024;-76
2024/01/08 03:42:37;;;;;;;4.68;4.28;;;;;;;6.70;86.07;99440.88;5089804;28;20016;-76
2024/01/08 03:45:03;;;;;;;7.97;4.95;;;;;;;6.73;86.33;99445.97;5089868;28;20032;-76
2024/01/08 03:47:28;;;;;;;4.35;3.95;;;;;;;6.62;85.67;99460.22;5089800;28;20546;-75
2024/01/08 03:49:55;;;;;;;4.93;4.53;;;;;;;6.49;86.14;99455.06;5090135;28;20739;-76
2024/01/08 03:52:22;;;;;;;6.03;4.78;;;;;;;6.66;85.72;99484.88;5090755;28;20058;-75
2024/01/08 03:54:49;;;;;;;4.53;4.13;;;;;;;6.68;86.37;99496.25;5089205;28;20031;-76
2024/01/08 03:57:14;;;;;;;4.65;4.25;;;;;;;6.65;85.83;99507.19;5090116;28;20035;-75
2024/01/08 03:59:42;;;;;;;4.50;4.20;;;;;;;6.71;86.02;99515.56;5090063;28;20032;-78
2024/01/08 04:02:07;;;;;;;6.95;5.50;;;;;;;6.78;85.42;99529.25;5089526;28;20024;-77
2024/01/08 04:04:33;;;;;;;5.68;4.72;;;;;;;6.68;85.13;99528.31;5089542;28;20412;-75
2024/01/08 04:06:58;;;;;;;4.80;4.40;;;;;;;6.70;84.57;99523.69;5090648;28;20484;-76
2024/01/08 04:09:24;;;;;;;5.28;4.80;;;;;;;6.83;84.14;99537.72;5090153;28;20531;-76
2024/01/08 04:11:49;;;;;;;5.63;4.65;;;;;;;6.82;84.03;99536.06;5088563;28;20036;-74
2024/01/08 04:14:15;;;;;;;7.70;5.32;;;;;;;6.82;83.49;99536.06;5089086;28;20471;-76
2024/01/08 04:16:40;;;;;;;6.20;5.60;;;;;;;6.82;82.63;99541.41;5089297;28;20024;-76
2024/01/08 04:19:07;;;;;;;5.05;4.57;;;;;;;6.65;83.02;99517.88;5089259;28;20127;-76
2024/01/08 04:21:32;;;;;;;5.70;4.93;;;;;;;6.76;83.60;99544.59;5088151;28;20047;-76
2024/01/08 04:23:58;;;;;;;8.25;5.47;;;;;;;6.74;83.01;99559.88;5086008;28;20048;-75
2024/01/08 04:26:25;;;;;;;5.50;5.00;;;;;;;6.77;83.13;99554.28;5085980;28;20048;-77
2024/01/08 04:28:51;;;;;;;6.38;5.03;;;;;;;6.72;83.09;99546.66;5088696;28;20031;-75
2024/01/08 04:31:20;;;;;;;6.90;6.25;;;;;;;6.35;83.17;99500.75;5088962;28;20028;-74
2024/01/08 04:33:46;;;;;;;7.80;5.82;;;;;;;6.63;83.33;99554.56;5088254;28;20028;-77
2024/01/08 04:36:13;;;;;;;6.43;5.82;;;;;;;6.57;83.50;99570.13;5087741;28;20039;-76
2024/01/08 04:38:39;;;;;;;6.93;6.00;;;;;;;6.44;84.10;99550.75;5088518;28;20028;-75
2024/01/08 04:41:04;;;;;;;7.30;6.55;;;;;;;6.40;84.17;99551.09;5088522;28;20428;-73
2024/01/08 04:43:30;;;;;;;7.38;6.65;;;;;;;6.43;83.97;99566.88;5088242;28;20034;-75
2024/01/08 04:45:55;;;;;;;6.05;5.45;;;;;;;6.31;83.07;99557.19;5088696;28;20035;-74
2024/01/08 04:48:21;;;;;;;11.05;6.05;;;;;;;6.14;83.90;99544.38;5088170;28;21089;-75
2024/01/08 04:50:46;;;;;;;7.90;6.78;;;;;;;6.07;84.61;99552.00;5085988;28;20032;-76
2024/01/08 04:53:12;;;;;;;8.55;6.47;;;;;;;5.97;85.58;99533.22;5088666;28;20036;-75
2024/01/08 04:55:37;;;;;;;7.20;6.25;;;;;;;5.73;85.88;99519.13;5086954;28;20059;-75
2024/01/08 04:58:05;;;;;;;6.03;5.43;;;;;;;5.64;86.60;99514.53;5098405;28;20024;-78
2024/01/08 05:00:31;;;;;;;7.45;6.72;;;;;;;5.57;86.87;99513.28;5098095;28;20024;-78
2024/01/08 05:02:56;;;;;;;7.35;5.78;;;;;;;5.40;87.76;99517.28;5112288;28;20043;-76
2024/01/08 05:05:22;;;;;;;6.72;5.90;;;;;;;5.45;88.19;99520.44;5092658;28;20101;-75
2024/01/08 05:07:47;;;;;;;12.73;6.65;;;;;;;5.43;89.03;99546.38;5086992;28;20039;-76
2024/01/08 05:10:13;;;;;;;7.82;5.80;;;;;;;5.39;88.89;99534.25;5086638;28;20066;-75
2024/01/08 05:12:38;;;;;;;8.75;6.65;;;;;;;5.48;88.97;99562.00;5087374;28;20032;-75
2024/01/08 05:15:04;;;;;;;5.90;5.30;;;;;;;5.54;88.51;99564.19;5087276;28;20020;-77
2024/01/08 05:17:30;;;;;;;7.88;6.25;;;;;;;5.48;88.80;99573.53;5087542;28;20028;-77
2024/01/08 05:19:55;;;;;;;6.13;5.53;;;;;;;5.34;87.63;99575.56;5087428;28;20096;-75
2024/01/08 05:22:21;;;;;;;13.52;5.82;;;;;;;5.29;87.22;99567.09;5087172;28;21238;-74
2024/01/08 05:24:47;;;;;;;10.13;5.57;;;;;;;5.31;86.80;99582.00;5087280;28;20035;-73
2024/01/08 05:27:12;;;;;;;10.07;5.93;;;;;;;5.13;86.28;99578.06;5087727;28;20070;-75
2024/01/08 05:29:38;;;;;;;7.50;6.80;;;;;;;5.03;86.32;99569.06;5086456;28;20508;-76
2024/01/08 05:32:04;;;;;;;6.70;6.10;;;;;;;4.98;86.01;99573.03;5087280;28;20036;-75
2024/01/08 05:34:29;;;;;;;7.03;6.32;;;;;;;4.85;85.78;99573.09;5087625;28;20484;-75
2024/01/08 05:36:56;;;;;;;9.43;7.70;;;;;;;4.65;86.79;99555.06;5088026;28;20399;-76
2024/01/08 05:39:21;;;;;;;7.97;6.88;;;;;;;4.70;86.95;99591.06;5088965;28;20032;-75
2024/01/08 05:41:47;;;;;;;10.27;8.13;;;;;;;4.67;86.68;99611.75;5087813;28;20135;-77
2024/01/08 05:44:13;;;;;;;14.13;8.23;;;;;;;4.56;87.72;99601.00;5087444;28;20024;-76
2024/01/08 05:46:44;;;;;;;11.85;7.45;;;;;;;4.58;87.67;99599.09;5087555;28;20032;-78
2024/01/08 05:49:10;;;;;;;9.87;8.37;;;;;;;4.46;88.72;99589.34;5087764;28;20036;-77
2024/01/08 05:51:36;;;;;;;10.95;9.02;;;;;;;4.50;88.84;99609.44;5087694;28;20277;-75
2024/01/08 05:54:02;;;;;;;17.17;11.18;;;;;;;4.37;88.88;99618.31;5086952;28;20031;-74
2024/01/08 05:56:28;;;;;;;11.10;8.98;;;;;;;4.34;89.30;99641.66;5086325;28;20039;-74
2024/01/08 05:58:54;;;;;;;13.60;10.02;;;;;;;4.32;89.60;99641.75;5086884;28;20024;-75
2024/01/08 06:01:20;;;;;;;9.85;7.97;;;;;;;4.28;90.35;99631.47;5085002;28;20027;-74
2024/01/08 06:03:45;;;;;;;12.10;10.52;;;;;;;4.43;91.02;99653.47;5090721;28;20039;-75
2024/01/08 06:06:12;;;;;;;16.58;9.77;;;;;;;4.50;91.14;99654.72;5087381;28;20036;-76
2024/01/08 06:08:40;;;;;;;13.30;10.57;;;;;;;4.48;90.56;99675.28;5087797;28;20059;-74
2024/01/08 06:11:06;;;;;;;10.35;8.45;;;;;;;4.54;90.62;99678.34;5050611;28;20149;-74
2024/01/08 06:13:32;;;;;;;10.13;8.90;;;;;;;4.48;89.82;99681.44;5067348;28;20104;-77
2024/01/08 06:15:57;;;;;;;12.35;8.38;;;;;;;4.27;89.39;99683.84;5067992;28;20131;-76
2024/01/08 06:18:24;;;;;;;12.77;9.18;;;;;;;4.31;89.50;99674.66;5067605;28;20028;-75
2024/01/08 06:20:49;;;;;;;10.07;8.65;;;;;;;4.32;89.79;99686.16;5076790;28;20418;-77
2024/01/08 06:23:15;;;;;;;10.27;8.18;;;;;;;4.12;89.24;99674.28;5067752;28;20036;-76
2024/01/08 06:25:40;;;;;;;11.65;9.07;;;;;;;4.19;89.84;99695.97;5065517;28;20075;-76
2024/01/08 06:28:06;;;;;;;9.73;8.73;;;;;;;4.22;89.91;99707.25;5067472;28;20078;-73
2024/01/08 06:30:32;;;;;;;11.05;9.88;;;;;;;4.27;90.45;99726.41;5068805;28;20048;-76
2024/01/08 06:32:57;;;;;;;12.88;9.45;;;;;;;4.26;90.70;99732.69;5067978;28;20040;-76
2024/01/08 06:35:23;;;;;;;28.13;10.43;;;;;;;4.33;90.03;99747.28;5070961;28;20508;-78
2024/01/08 06:37:49;;;;;;;12.05;9.27;;;;;;;4.23;90.33;99724.91;5091837;28;20040;-78
2024/01/08 06:40:15;;;;;;;13.30;9.32;;;;;;;4.25;89.72;99740.78;5091508;28;20120;-75
2024/01/08 06:42:40;;;;;;;9.23;8.05;;;;;;;4.33;89.29;99757.06;5087437;28;20567;-73
2024/01/08 06:45:06;;;;;;;13.02;10.40;;;;;;;4.23;89.45;99730.25;5087423;28;20551;-77
2024/01/08 06:47:32;;;;;;;14.07;9.35;;;;;;;4.38;89.36;99745.13;5070503;28;20024;-77
2024/01/08 06:49:57;;;;;;;9.77;8.35;;;;;;;4.46;89.46;99746.41;5087202;28;20123;-78
2024/01/08 06:52:24;;;;;;;11.23;9.10;;;;;;;4.27;89.38;99737.06;5086978;28;20515;-77
2024/01/08 06:54:49;;;;;;;10.05;8.45;;;;;;;4.29;89.21;99731.63;5086911;28;20444;-75
2024/01/08 06:57:15;;;;;;;10.73;8.38;;;;;;;4.29;88.73;99751.09;5089146;28;20051;-78
2024/01/08 06:59:40;;;;;;;12.30;8.73;;;;;;;4.18;88.80;99748.34;5090607;28;20034;-76
2024/01/08 07:02:06;;;;;;;15.32;11.07;;;;;;;4.22;87.97;99765.78;5090332;28;20079;-77
2024/01/08 07:04:31;;;;;;;16.02;10.80;;;;;;;4.16;87.31;99776.84;5090561;28;20020;-75
2024/01/08 07:06:57;;;;;;;17.42;10.43;;;;;;;4.16;87.95;99782.16;5090509;28;20480;-75
2024/01/08 07:09:23;;;;;;;13.85;9.85;;;;;;;4.19;87.77;99771.31;5104608;28;20419;-75
2024/01/08 07:11:48;;;;;;;11.30;9.45;;;;;;;4.31;88.08;99810.38;5089874;28;20081;-77
2024/01/08 07:14:14;;;;;;;12.00;9.18;;;;;;;4.26;87.46;99791.25;5089689;28;20031;-76
2024/01/08 07:16:39;;;;;;;11.57;8.57;;;;;;;4.17;86.87;99778.56;5090628;28;20023;-76
2024/01/08 07:19:05;;;;;;;9.90;8.55;;;;;;;4.23;86.08;99790.59;5090767;28;20023;-75
2024/01/08 07:21:30;;;;;;;21.98;10.05;;;;;;;4.13;85.89;99808.13;5090100;28;20024;-78
2024/01/08 07:23:56;;;;;;;14.43;9.57;;;;;;;4.16;86.16;99803.47;5091700;28;20441;-77
2024/01/08 07:26:21;;;;;;;15.50;10.90;;;;;;;4.19;86.29;99794.44;5090053;28;20072;-76
2024/01/08 07:28:47;;;;;;;25.85;12.18;;;;;;;4.35;86.66;99806.56;5081625;28;20021;-80
2024/01/08 07:31:15;;;;;;;14.70;9.82;;;;;;;4.29;86.09;99841.59;5080212;28;20511;-75
2024/01/08 07:33:41;;;;;;;16.65;10.98;;;;;;;4.19;85.47;99845.81;5089819;28;20028;-77
2024/01/08 07:36:07;;;;;;;15.35;10.52;;;;;;;4.06;85.63;99823.69;5087249;28;20040;-76
2024/01/08 07:38:33;;;;;;;11.93;9.80;;;;;;;4.14;85.75;99832.00;5089290;28;20062;-78
2024/01/08 07:40:59;;;;;;;15.18;10.18;;;;;;;4.02;85.62;99821.31;5103536;28;20204;-78
2024/01/08 07:43:26;;;;;;;12.65;8.40;;;;;;;3.87;85.14;99825.88;5089121;28;20027;-77
2024/01/08 07:45:52;;;;;;;11.30;8.90;;;;;;;3.90;85.11;99841.63;5088743;28;20059;-80
2024/01/08 07:48:18;;;;;;;10.82;8.93;;;;;;;3.66;86.03;99792.72;5090044;28;20107;-79
2024/01/08 07:50:45;;;;;;;14.10;10.35;;;;;;;3.85;85.56;99838.44;5088371;28;20047;-79
2024/01/08 07:53:11;;;;;;;14.48;9.40;;;;;;;3.91;86.21;99845.13;5088974;28;20134;-78
2024/01/08 07:55:37;;;;;;;12.68;8.43;;;;;;;3.89;86.08;99842.56;5088873;28;20049;-80
2024/01/08 07:58:02;;;;;;;10.68;8.23;;;;;;;3.84;85.70;99839.38;5089020;28;20032;-78
2024/01/08 08:00:28;;;;;;;20.77;13.63;;;;;;;3.91;85.67;99853.97;5089667;28;20556;-78
2024/01/08 08:02:54;;;;;;;13.05;9.25;;;;;;;4.00;86.16;99869.31;5089248;28;20115;-78
2024/01/08 08:05:19;;;;;;;11.02;8.13;;;;;;;3.93;85.38;99857.38;5089697;28;20063;-78
2024/01/08 08:07:45;;;;;;;8.98;7.60;;;;;;;3.94;85.17;99855.56;5089578;28;20016;-77
2024/01/08 08:10:11;;;;;;;11.02;7.97;;;;;;;3.99;84.53;99870.28;5089900;28;20032;-77
2024/01/08 08:12:36;;;;;;;12.68;8.38;;;;;;;4.00;84.35;99879.97;5088222;28;20578;-78
2024/01/08 08:15:02;;;;;;;10.98;8.75;;;;;;;4.05;83.92;99898.25;5108820;28;20067;-78
2024/01/08 08:17:28;;;;;;;11.98;8.52;;;;;;;4.01;83.80;99884.31;5110291;28;20538;-79
2024/01/08 08:19:53;;;;;;;14.30;9.15;;;;;;;4.01;83.89;99884.31;5089275;28;20055;-78
2024/01/08 08:22:19;;;;;;;11.13;8.43;;;;;;;4.07;83.80;99877.72;5089111;28;20114;-79
2024/01/08 08:24:47;;;;;;;10.32;8.52;;;;;;;4.18;84.17;99899.16;5088091;28;20051;-77
2024/01/08 08:27:13;;;;;;;18.38;8.82;;;;;;;4.10;84.04;99891.69;5089137;28;20048;-79
2024/01/08 08:29:41;;;;;;;10.35;8.30;;;;;;;4.30;84.02;99911.66;5089006;28;20065;-77
2024/01/08 08:32:08;;;;;;;18.23;9.63;;;;;;;4.28;82.86;99909.06;5088987;28;20059;-77
2024/01/08 08:34:33;;;;;;;13.15;9.10;;;;;;;4.19;82.27;99904.38;5088902;28;20039;-78
2024/01/08 08:36:59;;;;;;;11.10;8.13;;;;;;;4.19;82.03;99930.97;5088781;28;20024;-81
2024/01/08 08:39:25;;;;;;;11.63;9.05;;;;;;;4.19;81.86;99943.47;5088380;28;20020;-78
2024/01/08 08:41:50;;;;;;;13.80;8.88;;;;;;;4.08;81.71;99924.66;5088736;28;20109;-79
2024/01/08 08:44:17;;;;;;;10.88;9.30;;;;;;;4.00;81.79;99919.00;5088647;28;20107;-79
2024/01/08 08:46:43;;;;;;;14.02;9.43;;;;;;;3.93;81.90;99918.56;5088315;28;20103;-78
2024/01/08 08:49:09;;;;;;;18.42;11.02;;;;;;;4.07;81.59;99947.75;5088194;28;20113;-80
2024/01/08 08:51:36;;;;;;;15.02;10.10;;;;;;;4.05;81.53;99923.06;5088366;28;20024;-79
2024/01/08 08:54:03;;;;;;;12.13;9.60;;;;;;;3.90;80.19;99929.41;5088647;28;20085;-79
2024/01/08 08:56:39;;;;;;;18.00;12.15;;;;;;;3.77;79.91;99912.53;5089308;28;20024;-78
2024/01/08 08:59:04;;;;;;;15.85;10.90;;;;;;;3.69;80.31;99904.19;5091021;28;20024;-77
2024/01/08 09:01:30;;;;;;;13.25;9.70;;;;;;;3.57;80.45;99926.25;5089693;28;20031;-80
2024/01/08 09:03:56;;;;;;;11.85;8.50;;;;;;;3.56;80.82;99924.53;5102835;28;20028;-80
2024/01/08 09:06:26;;;;;;;12.80;9.45;;;;;;;3.53;81.12;99935.38;5110481;28;20043;-83
2024/01/08 09:08:53;;;;;;;15.88;10.48;;;;;;;3.54;82.18;99959.22;5095813;28;20012;-77
2024/01/08 09:11:19;;;;;;;21.40;12.98;;;;;;;3.54;81.78;99963.66;5087891;28;20072;-78
2024/01/08 09:13:45;;;;;;;15.73;11.38;;;;;;;3.34;81.96;99929.50;5092062;28;20417;-78
2024/01/08 09:16:12;;;;;;;13.65;9.07;;;;;;;3.52;81.98;99968.22;5091386;28;20104;-77
2024/01/08 09:18:38;;;;;;;14.23;9.10;;;;;;;3.47;82.12;99988.91;5089011;28;20066;-76
2024/01/08 09:21:03;;;;;;;13.35;9.85;;;;;;;3.50;82.46;99988.72;5088263;28;20125;-77
2024/01/08 09:23:29;;;;;;;15.68;11.93;;;;;;;3.52;82.43;100008.06;5087817;28;20031;-77
2024/01/08 09:25:55;;;;;;;16.08;10.35;;;;;;;3.55;82.47;99994.59;5087731;28;20047;-80
2024/01/08 09:28:20;;;;;;;15.02;10.55;;;;;;;3.47;82.16;100005.72;5088089;28;20108;-79
2024/01/08 09:30:47;;;;;;;12.38;10.00;;;;;;;3.45;82.71;99999.66;5086638;28;20123;-76
2024/01/08 09:33:13;;;;;;;15.77;10.32;;;;;;;3.54;82.79;100000.88;5086284;28;20020;-80
2024/01/08 09:35:38;;;;;;;11.32;9.35;;;;;;;3.57;82.70;99990.06;5087703;28;20465;-75
2024/01/08 09:38:05;;;;;;;28.30;17.33;;;;;;;3.57;81.35;99990.06;5092102;28;20051;-75
2024/01/08 09:40:30;;;;;;;11.80;9.07;;;;;;;3.57;81.10;99992.72;5092242;28;20418;-78
2024/01/08 09:42:59;;;;;;;13.10;9.88;;;;;;;3.53;81.73;100000.03;5092032;28;20016;-76
2024/01/08 09:45:26;;;;;;;13.35;9.80;;;;;;;3.53;81.94;100010.66;5092142;28;20036;-76
2024/01/08 09:47:54;;;;;;;16.23;10.18;;;;;;;3.60;82.00;99995.19;5093321;28;20558;-79
2024/01/08 09:50:21;;;;;;;16.30;10.68;;;;;;;3.62;82.68;100001.25;5094323;28;20059;-80
2024/01/08 09:52:47;;;;;;;16.77;11.00;;;;;;;3.63;82.36;100003.81;5098363;28;20024;-81
2024/01/08 09:55:13;;;;;;;13.57;10.40;;;;;;;3.64;81.81;100020.63;5117520;28;20036;-82
2024/01/08 09:57:39;;;;;;;16.63;9.82;;;;;;;3.72;81.09;100021.00;5107498;28;20039;-79
2024/01/08 10:00:05;;;;;;;14.73;9.73;;;;;;;3.78;80.40;100008.16;5092392;28;20404;-78
2024/01/08 10:02:31;;;;;;;12.20;8.77;;;;;;;3.84;80.46;100012.25;5091319;28;20039;-77
2024/01/08 10:04:57;;;;;;;10.80;8.95;;;;;;;3.54;79.56;99963.66;5088875;28;20024;-78
2024/01/08 10:07:24;;;;;;;11.13;8.02;;;;;;;3.91;79.35;100016.22;5091643;28;20111;-77
2024/01/08 10:09:50;;;;;;;11.10;8.80;;;;;;;3.87;77.99;100028.00;5091452;28;20028;-78
2024/01/08 10:12:16;;;;;;;13.25;9.35;;;;;;;3.73;77.95;100001.44;5091416;28;20040;-78
2024/01/08 10:14:42;;;;;;;15.80;9.13;;;;;;;3.80;78.36;99981.47;5090336;28;20027;-76
2024/01/08 10:17:07;;;;;;;11.15;8.23;;;;;;;4.10;78.02;100016.72;5090800;28;20028;-76
2024/01/08 10:19:33;;;;;;;14.07;8.32;;;;;;;3.95;77.42;100028.34;5091432;28;20116;-78
2024/01/08 10:22:09;;;;;;;12.07;8.52;;;;;;;3.95;76.53;100022.19;5091022;28;20360;-79
2024/01/08 10:24:38;;;;;;;12.20;8.80;;;;;;;3.97;76.99;100030.94;5091482;28;20028;-80
2024/01/08 10:27:04;;;;;;;10.07;8.10;;;;;;;4.02;77.37;100024.38;5090802;28;20421;-76
2024/01/08 10:29:30;;;;;;;10.90;9.70;;;;;;;3.98;75.54;100033.47;5090655;28;20030;-74
2024/01/08 10:31:56;;;;;;;17.17;12.55;;;;;;;3.91;75.84;100045.50;5090660;28;20187;-74
2024/01/08 10:34:22;;;;;;;17.70;13.57;;;;;;;3.94;76.18;100047.97;5090746;28;20112;-76
2024/01/08 10:36:48;;;;;;;15.93;11.13;;;;;;;3.90;76.23;100050.88;5091501;28;20103;-75
2024/01/08 10:39:17;;;;;;;13.40;9.43;;;;;;;4.01;77.09;100049.25;5091071;28;20028;-75
2024/01/08 10:41:42;;;;;;;11.57;8.15;;;;;;;4.04;76.42;100033.09;5091014;28;20028;-75
2024/01/08 10:44:08;;;;;;;11.63;8.15;;;;;;;4.03;76.11;100042.06;5100453;28;20031;-76
2024/01/08 10:46:43;;;;;;;10.07;7.15;;;;;;;3.99;76.41;100044.97;5098912;28;20456;-75
2024/01/08 10:49:16;;;;;;;11.57;7.85;;;;;;;3.83;76.06;100016.69;5089639;28;20481;-75
2024/01/08 10:51:44;;;;;;;11.88;9.00;;;;;;;3.89;75.26;100058.00;5090268;28;20398;-76
2024/01/08 10:54:14;;;;;;;15.18;7.95;;;;;;;3.95;75.05;100044.31;5090354;28;20117;-76
2024/01/08 10:56:40;;;;;;;9.18;7.75;;;;;;;3.85;74.92;100049.38;5090070;28;20104;-75
2024/01/08 10:59:09;;;;;;;20.25;10.90;;;;;;;3.68;74.65;100030.97;5090011;28;20115;-75
2024/01/08 11:01:36;;;;;;;10.93;8.68;;;;;;;3.74;75.54;100024.41;5085879;28;20064;-76
2024/01/08 11:04:03;;;;;;;13.43;8.43;;;;;;;3.62;74.31;100051.75;5088723;28;20119;-76
2024/01/08 11:06:30;;;;;;;14.38;9.27;;;;;;;3.45;74.80;100059.94;5088964;28;20136;-76
2024/01/08 11:09:00;;;;;;;24.08;14.30;;;;;;;3.20;75.64;100048.13;5087507;28;20439;-76
2024/01/08 11:11:26;;;;;;;20.23;12.45;;;;;;;3.19;74.83;100066.81;5089539;28;20088;-75
2024/01/08 11:13:52;;;;;;;16.00;11.48;;;;;;;3.00;75.09;100069.72;5089937;28;20024;-74
2024/01/08 11:16:30;;;;;;;19.58;11.40;;;;;;;2.89;75.31;100066.84;5090081;28;20032;-75
2024/01/08 11:19:18;;;;;;;19.55;10.10;;;;;;;2.85;75.86;100094.50;5087671;28;20036;-75
2024/01/08 11:21:47;;;;;;;16.67;11.32;;;;;;;2.85;76.69;100075.94;5081140;28;20016;-76
2024/01/08 11:24:13;;;;;;;18.88;11.45;;;;;;;2.85;76.93;100075.94;5090133;28;20067;-76
2024/01/08 11:26:44;;;;;;;16.33;9.82;;;;;;;2.91;76.50;100080.88;5090080;28;20056;-76
2024/01/08 11:29:10;;;;;;;11.68;10.48;;;;;;;2.74;75.83;100073.06;5089760;28;20028;-77